createdAt,value
2018-10-19T00:02:30.771Z,85.88
2018-10-19T00:05:02.236Z,87.01
2018-10-19T00:07:32.155Z,86.82
2018-10-19T00:10:02.275Z,86.95
2018-10-19T00:12:32.281Z,86.93
2018-10-19T00:15:03.217Z,86.72
2018-10-19T00:17:33.960Z,86.48
2018-10-19T00:20:04.076Z,86.02
2018-10-19T00:22:36.291Z,86.57
2018-10-19T00:25:09.454Z,86.68
2018-10-19T00:27:40.149Z,87.11
2018-10-19T00:30:12.541Z,86.09
2018-10-19T00:32:42.470Z,86.81
2018-10-19T00:35:18.877Z,87.00
2018-10-19T00:37:52.036Z,86.62
2018-10-19T00:40:21.994Z,86.55
2018-10-19T00:42:53.496Z,87.04
2018-10-19T00:45:28.414Z,86.12
2018-10-19T00:48:02.898Z,86.04
2018-10-19T00:50:32.980Z,85.79
2018-10-19T00:53:03.108Z,84.83
2018-10-19T00:55:33.051Z,84.76
2018-10-19T00:58:03.068Z,84.52
2018-10-19T01:00:33.510Z,84.59
2018-10-19T01:03:04.069Z,83.79
2018-10-19T01:05:38.821Z,84.03
2018-10-19T01:08:10.964Z,84.73
2018-10-19T01:10:41.493Z,85.02
2018-10-19T01:13:11.603Z,85.71
2018-10-19T01:15:42.450Z,84.99
2018-10-19T01:18:12.441Z,83.98
2018-10-19T01:20:42.446Z,84.13
2018-10-19T01:23:12.590Z,84.28
2018-10-19T01:25:43.199Z,83.75
2018-10-19T01:28:14.372Z,83.84
2018-10-19T01:30:46.400Z,84.30
2018-10-19T01:33:17.090Z,83.72
2018-10-19T01:35:46.899Z,84.47
2018-10-19T01:38:17.695Z,84.05
2018-10-19T01:40:48.933Z,84.41
2018-10-19T01:43:18.838Z,84.64
2018-10-19T01:45:54.866Z,83.98
2018-10-19T01:48:25.307Z,84.85
2018-10-19T01:50:55.505Z,85.01
2018-10-19T01:53:26.691Z,84.81
2018-10-19T01:55:58.285Z,84.66
2018-10-19T01:58:28.377Z,83.13
2018-10-19T02:00:59.215Z,85.28
2018-10-19T02:03:32.149Z,84.75
2018-10-19T02:06:02.425Z,85.52
2018-10-19T02:08:32.952Z,86.92
2018-10-19T02:11:03.005Z,86.40
2018-10-19T02:13:32.881Z,86.46
2018-10-19T02:16:03.034Z,86.91
2018-10-19T02:18:32.899Z,86.73
2018-10-19T02:21:03.623Z,86.09
2018-10-19T02:23:33.640Z,86.73
2018-10-19T02:26:04.707Z,87.01
2018-10-19T02:28:35.039Z,86.75
2018-10-19T02:31:05.504Z,86.67
2018-10-19T02:33:36.481Z,86.93
2018-10-19T02:36:08.597Z,87.74
2018-10-19T02:38:39.090Z,86.79
2018-10-19T02:41:10.511Z,86.80
2018-10-19T02:43:40.656Z,86.17
2018-10-19T02:46:12.044Z,85.41
2018-10-19T02:48:41.925Z,85.04
2018-10-19T02:51:12.953Z,85.63
2018-10-19T02:53:42.734Z,85.72
2018-10-19T02:56:14.589Z,84.80
2018-10-19T02:58:44.791Z,84.84
2018-10-19T03:01:15.716Z,86.84
2018-10-19T03:03:47.834Z,89.49
2018-10-19T03:06:20.000Z,90.71
2018-10-19T03:08:50.024Z,91.38
2018-10-19T03:11:20.702Z,90.70
2018-10-19T03:13:51.154Z,88.76
2018-10-19T03:16:21.134Z,87.83
2018-10-19T03:18:51.190Z,87.52
2018-10-19T03:21:23.190Z,87.41
2018-10-19T03:23:55.472Z,86.82
2018-10-19T03:26:26.665Z,87.04
2018-10-19T03:28:56.527Z,86.55
2018-10-19T03:31:28.148Z,85.98
2018-10-19T03:33:58.134Z,86.66
2018-10-19T03:36:28.014Z,87.33
2018-10-19T03:38:59.806Z,87.11
2018-10-19T03:41:29.793Z,87.01
2018-10-19T03:44:00.348Z,87.01
2018-10-19T03:46:31.192Z,87.17
2018-10-19T03:49:01.295Z,87.29
2018-10-19T03:51:32.154Z,87.67
2018-10-19T03:54:03.452Z,87.54
2018-10-19T03:56:33.385Z,87.61
2018-10-19T03:59:03.962Z,87.16
2018-10-19T04:01:34.579Z,88.19
2018-10-19T04:04:05.271Z,89.05
2018-10-19T04:06:35.409Z,89.19
2018-10-19T04:09:08.698Z,89.06
2018-10-19T04:11:38.716Z,90.48
2018-10-19T04:14:12.000Z,89.98
2018-10-19T04:16:41.913Z,89.96
2018-10-19T04:19:13.135Z,89.53
2018-10-19T04:21:43.086Z,88.18
2018-10-19T04:24:15.316Z,88.77
2018-10-19T04:26:45.272Z,88.27
2018-10-19T04:29:16.826Z,87.72
2018-10-19T04:31:49.357Z,87.59
2018-10-19T04:34:19.742Z,89.99
2018-10-19T04:36:52.396Z,89.50
2018-10-19T04:39:23.897Z,91.26
2018-10-19T04:41:54.221Z,91.61
2018-10-19T04:44:24.944Z,91.28
2018-10-19T04:46:57.072Z,90.86
2018-10-19T04:49:27.505Z,91.21
2018-10-19T04:51:59.359Z,91.41
2018-10-19T04:54:31.303Z,91.01
2018-10-19T04:57:04.138Z,90.13
2018-10-19T04:59:34.488Z,89.89
2018-10-19T05:02:05.143Z,89.15
2018-10-19T05:04:36.881Z,89.54
2018-10-19T05:07:07.087Z,89.89
2018-10-19T05:09:37.831Z,88.85
2018-10-19T05:12:10.436Z,88.91
2018-10-19T05:14:40.634Z,89.17
2018-10-19T05:17:14.836Z,88.51
2018-10-19T05:19:46.207Z,88.03
2018-10-19T05:22:19.941Z,88.04
2018-10-19T05:24:50.818Z,87.96
2018-10-19T05:27:20.755Z,87.98
2018-10-19T05:29:50.901Z,87.73
2018-10-19T05:32:23.702Z,87.78
2018-10-19T05:34:56.652Z,87.34
2018-10-19T05:37:27.266Z,87.71
2018-10-19T05:39:57.384Z,88.76
2018-10-19T05:42:28.056Z,88.22
2018-10-19T05:44:59.540Z,87.89
2018-10-19T05:47:29.540Z,88.08
2018-10-19T05:50:01.667Z,89.20
2018-10-19T05:52:33.317Z,89.25
2018-10-19T05:55:04.321Z,89.94
2018-10-19T05:57:35.761Z,89.42
2018-10-19T06:00:10.844Z,89.27
2018-10-19T06:02:43.053Z,89.20
2018-10-19T06:05:14.372Z,90.31
2018-10-19T06:07:45.025Z,90.18
2018-10-19T06:10:16.159Z,89.80
2018-10-19T06:12:47.558Z,89.06
2018-10-19T06:15:18.493Z,89.67
2018-10-19T06:17:48.676Z,89.42
2018-10-19T06:20:20.409Z,89.63
2018-10-19T06:22:51.425Z,89.22
2018-10-19T06:25:21.527Z,89.77
2018-10-19T06:27:52.140Z,88.63
2018-10-19T06:30:24.645Z,89.96
2018-10-19T06:32:54.989Z,89.15
2018-10-19T06:35:25.240Z,89.83
2018-10-19T06:37:56.836Z,90.09
2018-10-19T06:42:13.881Z,89.50
2018-10-19T06:44:45.134Z,88.66
2018-10-19T06:47:15.433Z,88.18
2018-10-19T06:49:46.948Z,87.07
2018-10-19T06:52:17.681Z,86.90
2018-10-19T06:54:48.572Z,86.26
2018-10-19T06:57:18.634Z,85.84
2018-10-19T06:59:50.550Z,86.50
2018-10-19T07:02:30.506Z,84.87
2018-10-19T07:05:02.238Z,84.52
2018-10-19T07:07:33.320Z,83.56
2018-10-19T07:10:04.621Z,82.96
2018-10-19T07:12:37.538Z,83.53
2018-10-19T07:15:08.892Z,82.32
2018-10-19T07:17:42.168Z,81.60
2018-10-19T07:20:14.214Z,81.34
2018-10-19T07:22:47.138Z,81.45
2018-10-19T07:25:19.324Z,80.48
2018-10-19T07:27:56.175Z,79.25
2018-10-19T07:30:27.841Z,80.00
2018-10-19T07:33:01.040Z,80.16
2018-10-19T07:35:33.938Z,80.46
2018-10-19T07:38:06.197Z,80.96
2018-10-19T07:40:36.579Z,80.13
2018-10-19T07:43:08.218Z,80.92
2018-10-19T07:45:39.536Z,80.59
2018-10-19T07:48:13.352Z,81.93
2018-10-19T07:50:45.492Z,81.26
2018-10-19T07:53:21.342Z,80.71
2018-10-19T07:55:51.615Z,81.84
2018-10-19T07:58:22.145Z,81.72
2018-10-19T08:00:52.341Z,81.09
2018-10-19T08:03:26.891Z,81.12
2018-10-19T08:05:58.749Z,80.67
2018-10-19T08:08:29.306Z,81.42
2018-10-19T08:11:02.417Z,80.80
2018-10-19T08:13:36.538Z,80.77
2018-10-19T08:16:09.587Z,80.53
2018-10-19T08:18:42.753Z,79.68
2018-10-19T08:21:16.261Z,80.33
2018-10-19T08:23:47.561Z,80.84
2018-10-19T08:26:18.023Z,80.63
2018-10-19T08:28:49.600Z,80.33
2018-10-19T08:31:22.802Z,79.75
2018-10-19T08:33:54.966Z,80.25
2018-10-19T08:36:29.051Z,79.41
2018-10-19T08:39:06.778Z,78.38
2018-10-19T08:41:42.260Z,78.28
2018-10-19T08:44:12.333Z,76.86
2018-10-19T08:46:44.092Z,77.71
2018-10-19T08:49:14.077Z,77.55
2018-10-19T08:51:45.433Z,76.93
2018-10-19T08:54:15.537Z,77.28
2018-10-19T08:56:46.364Z,77.21
2018-10-19T08:59:16.409Z,77.38
2018-10-19T09:01:48.049Z,76.39
2018-10-19T09:04:20.154Z,76.41
2018-10-19T09:06:50.584Z,76.22
2018-10-19T09:09:20.838Z,76.12
2018-10-19T09:11:50.909Z,76.44
2018-10-19T09:14:40.322Z,76.39
2018-10-19T09:17:10.834Z,75.71
2018-10-19T09:19:40.846Z,74.66
2018-10-19T09:22:11.110Z,74.71
2018-10-19T09:24:41.001Z,71.92
2018-10-19T09:27:12.308Z,72.77
2018-10-19T09:29:42.328Z,72.96
2018-10-19T09:32:13.573Z,73.54
2018-10-19T09:34:44.070Z,72.56
2018-10-19T09:37:16.213Z,73.00
2018-10-19T09:39:46.288Z,73.13
2018-10-19T09:42:16.543Z,73.91
2018-10-19T09:44:46.537Z,74.33
2018-10-19T09:47:16.597Z,73.49
2018-10-19T09:49:47.183Z,74.09
2018-10-19T09:52:22.120Z,72.99
2018-10-19T09:54:52.678Z,72.65
2018-10-19T09:57:24.103Z,72.87
2018-10-19T09:59:54.581Z,72.89
2018-10-19T10:02:26.124Z,72.09
2018-10-19T10:04:57.519Z,73.07
2018-10-19T10:07:27.444Z,72.29
2018-10-19T10:09:57.599Z,71.83
2018-10-19T10:12:31.428Z,71.99
2018-10-19T10:15:07.201Z,70.49
2018-10-19T10:20:27.129Z,69.76
2018-10-19T10:22:57.966Z,67.50
2018-10-19T10:25:29.182Z,68.41
2018-10-19T10:28:01.848Z,67.27
2018-10-19T10:30:36.296Z,67.49
2018-10-19T10:33:07.351Z,67.64
2018-10-19T10:35:39.252Z,67.78
2018-10-19T10:38:09.861Z,69.87
2018-10-19T10:40:40.134Z,66.06
2018-10-19T10:43:11.093Z,65.07
2018-10-19T10:45:43.082Z,66.00
2018-10-19T10:48:15.101Z,66.42
2018-10-19T10:50:46.050Z,65.00
2018-10-19T10:53:17.060Z,64.65
2018-10-19T10:55:49.810Z,64.20
2018-10-19T10:58:32.017Z,64.10
2018-10-19T11:01:08.445Z,64.24
2018-10-19T11:03:47.875Z,64.54
2018-10-19T11:06:18.882Z,64.70
2018-10-19T11:08:53.630Z,64.82
2018-10-19T11:11:30.203Z,65.69
2018-10-19T11:14:04.331Z,65.94
2018-10-19T11:16:47.831Z,65.78
2018-10-19T11:19:51.536Z,66.01
2018-10-19T11:22:29.657Z,66.55
2018-10-19T11:25:16.217Z,66.09
2018-10-19T11:27:55.735Z,66.05
2018-10-19T11:30:35.536Z,65.86
2018-10-19T11:33:09.102Z,65.79
2018-10-19T11:35:42.868Z,65.76
2018-10-19T11:38:27.382Z,64.95
2018-10-19T11:41:10.554Z,64.23
2018-10-19T11:43:44.095Z,64.43
2018-10-19T11:46:25.884Z,62.52
2018-10-19T11:49:06.719Z,63.07
2018-10-19T11:51:39.192Z,63.44
2018-10-19T11:54:19.125Z,63.52
2018-10-19T11:56:57.229Z,62.96
2018-10-19T11:59:37.302Z,63.22
2018-10-19T12:02:11.417Z,61.89
2018-10-19T12:04:53.199Z,61.77
2018-10-19T12:07:26.035Z,61.34
2018-10-19T12:10:00.227Z,60.51
2018-10-19T12:13:17.739Z,60.46
2018-10-19T12:15:53.613Z,61.03
2018-10-19T12:18:25.659Z,60.66
2018-10-19T12:21:04.769Z,60.86
2018-10-19T12:23:36.213Z,59.87
2018-10-19T12:26:09.441Z,60.81
2018-10-19T12:28:48.876Z,60.82
2018-10-19T12:34:13.965Z,60.78
2018-10-19T12:36:49.130Z,58.98
2018-10-19T12:39:22.921Z,58.95
2018-10-19T12:41:59.454Z,58.30
2018-10-19T12:44:38.033Z,58.44
2018-10-19T12:47:25.305Z,59.16
2018-10-19T12:50:08.789Z,59.01
2018-10-19T12:52:41.486Z,58.62
2018-10-19T12:55:15.565Z,57.59
2018-10-19T12:57:47.125Z,58.95
2018-10-19T13:00:21.751Z,57.61
2018-10-19T13:02:57.322Z,57.28
2018-10-19T13:05:31.310Z,57.74
2018-10-19T13:08:03.178Z,58.68
2018-10-19T13:10:39.095Z,58.96
2018-10-19T13:13:10.440Z,58.20
2018-10-19T13:15:43.051Z,57.97
2018-10-19T13:18:18.711Z,57.88
2018-10-19T13:20:53.939Z,59.32
2018-10-19T13:23:30.367Z,58.49
2018-10-19T13:26:03.705Z,58.38
2018-10-19T13:28:35.045Z,59.41
2018-10-19T13:31:07.919Z,58.07
2018-10-19T13:33:40.438Z,58.46
2018-10-19T13:36:12.285Z,59.08
2018-10-19T13:38:43.136Z,59.03
2018-10-19T13:41:14.128Z,58.01
2018-10-19T13:43:45.990Z,58.54
2018-10-19T13:46:17.001Z,58.70
2018-10-19T13:48:51.049Z,58.93
2018-10-19T13:51:21.662Z,58.88
2018-10-19T13:53:51.785Z,58.66
2018-10-19T13:56:22.232Z,57.75
2018-10-19T13:58:52.802Z,57.56
2018-10-19T14:04:15.648Z,56.68
2018-10-19T14:06:49.373Z,57.98
2018-10-19T14:09:20.274Z,58.19
2018-10-19T14:11:51.651Z,57.97
2018-10-19T14:14:25.400Z,57.66
2018-10-19T14:16:57.746Z,58.65
2018-10-19T14:19:28.500Z,58.34
2018-10-19T14:21:58.745Z,58.17
2018-10-19T14:27:24.086Z,63.02
2018-10-19T14:29:54.206Z,63.46
2018-10-19T14:32:25.641Z,64.08
2018-10-19T14:35:03.083Z,64.22
2018-10-19T14:37:34.961Z,64.46
2018-10-19T14:40:09.331Z,64.21
2018-10-19T14:42:42.332Z,64.89
2018-10-19T14:45:13.497Z,63.58
2018-10-19T14:47:46.410Z,63.69
2018-10-19T14:50:25.488Z,62.53
2018-10-19T14:52:58.617Z,63.03
2018-10-19T14:55:30.835Z,62.96
2018-10-19T14:58:01.144Z,64.34
2018-10-19T15:00:32.959Z,65.53
2018-10-19T15:03:03.731Z,65.65
2018-10-19T15:05:35.232Z,64.79
2018-10-19T15:08:06.346Z,65.13
2018-10-19T15:10:38.675Z,65.00
2018-10-19T15:13:09.230Z,65.30
2018-10-19T15:15:41.060Z,65.82
2018-10-19T15:18:15.544Z,65.65
2018-10-19T15:20:45.986Z,64.89
2018-10-19T15:23:17.386Z,64.81
2018-10-19T15:25:49.488Z,65.34
2018-10-19T15:28:20.046Z,65.79
2018-10-19T15:30:51.415Z,65.90
2018-10-19T15:33:24.166Z,65.83
2018-10-19T15:35:55.752Z,66.28
2018-10-19T15:38:28.045Z,65.17
2018-10-19T15:40:58.566Z,65.64
2018-10-19T15:43:28.584Z,65.01
2018-10-19T15:45:58.479Z,64.29
2018-10-19T15:48:28.275Z,64.61
2018-10-19T15:50:58.985Z,64.53
2018-10-19T15:53:29.236Z,64.05
2018-10-19T15:55:59.336Z,65.11
2018-10-19T15:58:30.780Z,65.36
2018-10-19T16:01:01.895Z,66.26
2018-10-19T16:03:32.184Z,66.35
2018-10-19T16:06:03.402Z,65.57
2018-10-19T16:08:34.157Z,66.22
2018-10-19T16:11:04.374Z,66.61
2018-10-19T16:13:35.284Z,66.89
2018-10-19T16:16:06.295Z,65.69
2018-10-19T16:18:36.844Z,65.50
2018-10-19T16:21:07.881Z,66.98
2018-10-19T16:23:38.617Z,65.67
2018-10-19T16:26:10.784Z,65.87
2018-10-19T16:28:44.345Z,65.33
2018-10-19T16:31:15.424Z,64.94
2018-10-19T16:33:46.081Z,65.50
2018-10-19T16:36:18.405Z,66.31
2018-10-19T16:38:49.792Z,64.67
2018-10-19T16:41:21.856Z,65.11
2018-10-19T16:43:55.591Z,64.98
2018-10-19T16:46:28.778Z,66.37
2018-10-19T16:48:59.677Z,65.72
2018-10-19T16:51:31.395Z,65.57
2018-10-19T16:54:01.948Z,65.72
2018-10-19T16:56:32.285Z,65.73
2018-10-19T16:59:06.113Z,64.99
2018-10-19T17:01:40.834Z,65.54
2018-10-19T17:04:22.918Z,65.22
2018-10-19T17:06:57.758Z,66.13
2018-10-19T17:09:35.142Z,65.32
2018-10-19T17:12:06.731Z,64.70
2018-10-19T17:14:42.514Z,65.07
2018-10-19T17:17:28.440Z,64.65
2018-10-19T17:23:04.632Z,64.56
2018-10-19T17:25:45.217Z,64.46
2018-10-19T17:28:16.072Z,64.67
2018-10-19T17:30:46.960Z,64.17
2018-10-19T17:36:00.304Z,64.31
2018-10-19T17:38:32.587Z,63.77
2018-10-19T17:41:11.363Z,63.68
2018-10-19T17:43:44.011Z,64.45
2018-10-19T17:46:15.570Z,65.23
2018-10-19T17:48:49.570Z,65.03
2018-10-19T17:51:21.000Z,66.34
2018-10-19T17:53:51.541Z,66.38
2018-10-19T17:56:22.230Z,66.63
2018-10-19T18:01:31.568Z,67.02
2018-10-19T18:04:03.219Z,65.97
2018-10-19T18:06:35.819Z,65.94
2018-10-19T18:09:13.204Z,66.86
2018-10-19T18:14:32.917Z,66.99
2018-10-19T18:17:03.912Z,66.02
2018-10-19T18:19:35.740Z,66.13
2018-10-19T18:22:07.577Z,66.54
2018-10-19T18:24:38.108Z,65.53
2018-10-19T18:27:09.165Z,65.85
2018-10-19T18:29:40.172Z,65.56
2018-10-19T18:32:10.765Z,66.23
2018-10-19T18:34:43.076Z,66.03
2018-10-19T18:37:13.647Z,65.82
2018-10-19T18:39:44.332Z,65.98
2018-10-19T18:42:17.028Z,66.15
2018-10-19T18:44:47.538Z,66.68
2018-10-19T18:47:19.149Z,66.93
2018-10-19T18:49:51.115Z,67.24
2018-10-19T18:52:22.541Z,67.44
2018-10-19T18:55:00.378Z,67.48
2018-10-19T18:57:38.413Z,67.88
2018-10-19T19:00:14.180Z,68.60
2018-10-19T19:02:46.232Z,69.41
2018-10-19T19:05:26.909Z,68.64
2018-10-19T19:08:20.178Z,69.36
2018-10-19T19:10:52.625Z,70.43
2018-10-19T19:13:33.822Z,71.11
2018-10-19T19:16:15.005Z,70.21
2018-10-19T19:18:45.114Z,70.69
2018-10-19T19:21:16.145Z,70.28
2018-10-19T19:23:54.179Z,70.73
2018-10-19T19:26:28.915Z,70.37
2018-10-19T19:28:59.619Z,70.74
2018-10-19T19:31:29.932Z,70.38
2018-10-19T19:34:05.910Z,70.86
2018-10-19T19:36:36.390Z,69.51
2018-10-19T19:39:11.009Z,69.85
2018-10-19T19:41:46.311Z,69.95
2018-10-19T19:44:16.516Z,70.17
2018-10-19T19:46:47.434Z,70.89
2018-10-19T19:49:22.785Z,70.70
2018-10-19T19:51:54.049Z,70.92
2018-10-19T19:54:25.951Z,70.44
2018-10-19T19:56:56.135Z,69.75
2018-10-19T19:59:26.862Z,70.86
2018-10-19T20:01:58.687Z,70.92
2018-10-19T20:04:29.083Z,70.67
2018-10-19T20:06:59.621Z,70.47
2018-10-19T20:09:30.389Z,70.49
2018-10-19T20:12:00.382Z,70.39
2018-10-19T20:14:31.899Z,70.16
2018-10-19T20:17:02.262Z,70.26
2018-10-19T20:19:32.412Z,71.03
2018-10-19T20:22:04.122Z,70.78
2018-10-19T20:24:35.619Z,71.13
2018-10-19T20:27:05.741Z,70.72
2018-10-19T20:29:36.316Z,70.73
2018-10-19T20:32:06.534Z,69.59
2018-10-19T20:34:37.053Z,69.66
2018-10-19T20:37:11.834Z,69.58
2018-10-19T20:39:43.538Z,70.59
2018-10-19T20:42:14.455Z,70.44
2018-10-19T20:44:45.726Z,71.31
2018-10-19T20:50:25.200Z,71.29
2018-10-19T20:52:57.454Z,71.47
2018-10-19T20:55:29.503Z,72.15
2018-10-19T20:58:02.579Z,71.98
2018-10-19T21:00:34.157Z,70.89
2018-10-19T21:05:49.946Z,70.18
2018-10-19T21:08:20.036Z,70.96
2018-10-19T21:10:51.537Z,70.80
2018-10-19T21:13:21.877Z,71.47
2018-10-19T21:15:52.189Z,70.32
2018-10-19T21:18:23.125Z,70.02
2018-10-19T21:20:53.421Z,69.58
2018-10-19T21:23:24.382Z,69.55
2018-10-19T21:25:54.945Z,69.15
2018-10-19T21:28:26.736Z,69.15
2018-10-19T21:36:25.165Z,68.44
2018-10-19T21:38:55.573Z,68.51
2018-10-19T21:41:26.009Z,68.82
2018-10-19T21:43:58.003Z,68.15
2018-10-19T21:46:29.921Z,68.39
2018-10-19T21:49:01.174Z,68.21
2018-10-19T21:51:31.404Z,68.53
2018-10-19T21:54:01.734Z,68.39
2018-10-19T21:56:33.215Z,69.67
2018-10-19T21:59:05.724Z,68.54
2018-10-19T22:01:36.170Z,69.05
2018-10-19T22:04:09.891Z,68.26
2018-10-19T22:06:42.244Z,69.44
2018-10-19T22:09:13.886Z,69.50
2018-10-19T22:11:48.335Z,69.56
2018-10-19T22:14:22.410Z,69.13
2018-10-19T22:16:53.045Z,69.94
2018-10-19T22:19:25.064Z,70.35
2018-10-19T22:21:55.686Z,69.86
2018-10-19T22:24:27.144Z,70.22
2018-10-19T22:27:01.312Z,70.51
2018-10-19T22:29:32.272Z,70.41
2018-10-19T22:32:03.446Z,70.24
2018-10-19T22:34:34.561Z,69.64
2018-10-19T22:37:06.187Z,69.62
2018-10-19T22:39:39.584Z,70.04
2018-10-19T22:42:11.752Z,69.46
2018-10-19T22:44:42.683Z,69.33
2018-10-19T22:49:38.675Z,69.04
2018-10-19T22:52:10.214Z,69.46
2018-10-19T22:54:41.358Z,69.77
2018-10-19T22:57:12.475Z,69.95
2018-10-19T22:59:45.541Z,68.96
2018-10-19T23:02:17.212Z,69.13
2018-10-19T23:04:47.427Z,68.79
2018-10-19T23:07:23.177Z,68.02
2018-10-19T23:09:56.364Z,69.65
2018-10-19T23:12:26.584Z,69.44
2018-10-19T23:14:57.354Z,68.52
2018-10-19T23:17:30.557Z,68.34
2018-10-19T23:20:00.685Z,69.30
2018-10-19T23:22:33.851Z,70.32
2018-10-19T23:25:05.997Z,70.59
2018-10-19T23:27:37.589Z,71.36
2018-10-19T23:30:11.135Z,71.97
2018-10-19T23:32:41.689Z,72.03
2018-10-19T23:35:13.318Z,71.72
2018-10-19T23:37:43.858Z,71.40
2018-10-19T23:40:15.605Z,71.44
2018-10-19T23:42:45.628Z,71.30
2018-10-19T23:45:16.255Z,71.56
2018-10-19T23:47:46.375Z,71.10
2018-10-19T23:50:18.273Z,71.73
2018-10-19T23:52:49.609Z,69.95
2018-10-19T23:55:19.624Z,70.13
2018-10-19T23:57:50.603Z,70.04
